createdAt,value
2023-05-06T00:01:15.009Z,-1.10
2023-05-06T00:03:42.121Z,-1.10
2023-05-06T00:06:09.271Z,-1.10
2023-05-06T00:08:36.289Z,-1.10
2023-05-06T00:11:03.213Z,-1.10
2023-05-06T00:13:30.048Z,-1.20
2023-05-06T00:15:57.105Z,-1.20
2023-05-06T00:18:24.094Z,-1.20
2023-05-06T00:20:50.964Z,-1.20
2023-05-06T00:23:17.807Z,-1.30
2023-05-06T00:25:44.631Z,-1.30
2023-05-06T00:28:11.443Z,-1.30
2023-05-06T00:30:38.975Z,-1.30
2023-05-06T00:33:05.974Z,-1.30
2023-05-06T00:35:33.535Z,-1.30
2023-05-06T00:38:09.488Z,-1.40
2023-05-06T00:40:36.602Z,-1.40
2023-05-06T00:43:03.754Z,-1.50
2023-05-06T00:45:30.769Z,-1.50
2023-05-06T00:47:59.007Z,-1.50
2023-05-06T00:50:28.382Z,-1.50
2023-05-06T00:52:58.147Z,-1.50
2023-05-06T00:55:25.625Z,-1.50
2023-05-06T00:57:53.116Z,-1.50
2023-05-06T01:00:21.083Z,-1.50
2023-05-06T01:02:48.950Z,-1.50
2023-05-06T01:05:22.506Z,-1.40
2023-05-06T01:07:53.871Z,-1.40
2023-05-06T01:10:31.087Z,-1.40
2023-05-06T01:13:00.697Z,-1.40
2023-05-06T01:15:40.959Z,-1.40
2023-05-06T01:18:13.678Z,-1.40
2023-05-06T01:20:43.544Z,-1.40
2023-05-06T01:23:14.627Z,-1.40
2023-05-06T01:25:42.061Z,-1.40
2023-05-06T01:28:11.459Z,-1.40
2023-05-06T01:30:53.046Z,-1.40
2023-05-06T01:33:35.253Z,-1.50
2023-05-06T01:36:12.949Z,-1.50
2023-05-06T01:38:53.271Z,-1.50
2023-05-06T01:41:21.699Z,-1.60
2023-05-06T01:43:50.206Z,-1.60
2023-05-06T01:46:21.709Z,-1.60
2023-05-06T01:48:54.359Z,-1.60
2023-05-06T01:51:23.673Z,-1.60
2023-05-06T01:53:50.979Z,-1.60
2023-05-06T01:56:18.000Z,-1.60
2023-05-06T01:58:44.822Z,-1.70
2023-05-06T02:01:11.716Z,-1.70
2023-05-06T02:03:40.170Z,-1.70
2023-05-06T02:06:07.639Z,-1.70
2023-05-06T02:08:40.105Z,-1.70
2023-05-06T02:11:08.071Z,-1.70
2023-05-06T02:13:35.241Z,-1.70
2023-05-06T02:16:02.957Z,-1.70
2023-05-06T02:18:29.919Z,-1.70
2023-05-06T02:20:56.782Z,-1.70
2023-05-06T02:23:23.697Z,-1.70
2023-05-06T02:25:51.814Z,-1.70
2023-05-06T02:28:18.784Z,-1.70
2023-05-06T02:30:45.746Z,-1.70
2023-05-06T02:33:12.585Z,-1.70
2023-05-06T02:35:39.423Z,-1.70
2023-05-06T02:38:06.289Z,-1.70
2023-05-06T02:40:34.265Z,-1.70
2023-05-06T02:43:01.425Z,-1.70
2023-05-06T02:45:28.318Z,-1.80
2023-05-06T02:47:55.348Z,-1.80
2023-05-06T02:50:22.226Z,-1.80
2023-05-06T02:52:49.193Z,-1.80
2023-05-06T02:55:16.112Z,-1.90
2023-05-06T02:57:42.960Z,-1.80
2023-05-06T03:00:12.947Z,-1.90
2023-05-06T03:02:39.994Z,-1.90
2023-05-06T03:05:07.974Z,-1.90
2023-05-06T03:07:36.440Z,-1.90
2023-05-06T03:10:05.033Z,-1.90
2023-05-06T03:12:34.769Z,-1.90
2023-05-06T03:15:01.647Z,-1.90
2023-05-06T03:17:28.723Z,-1.90
2023-05-06T03:19:55.700Z,-1.90
2023-05-06T03:22:22.988Z,-1.90
2023-05-06T03:24:50.432Z,-1.90
2023-05-06T03:27:17.501Z,-1.90
2023-05-06T03:29:47.500Z,-1.90
2023-05-06T03:32:15.570Z,-1.90
2023-05-06T03:34:44.288Z,-1.90
2023-05-06T03:37:15.725Z,-1.80
2023-05-06T03:39:48.408Z,-1.80
2023-05-06T03:42:16.467Z,-1.80
2023-05-06T03:44:44.533Z,-1.80
2023-05-06T03:47:11.503Z,-1.80
2023-05-06T03:49:38.283Z,-1.80
2023-05-06T03:52:06.020Z,-1.70
2023-05-06T03:54:32.935Z,-1.70
2023-05-06T03:57:00.082Z,-1.60
2023-05-06T03:59:27.040Z,-1.60
2023-05-06T04:01:55.172Z,-1.50
2023-05-06T04:04:22.415Z,-1.50
2023-05-06T04:06:49.278Z,-1.40
2023-05-06T04:09:16.050Z,-1.40
2023-05-06T04:11:42.904Z,-1.30
2023-05-06T04:14:12.463Z,-1.20
2023-05-06T04:16:39.311Z,-1.10
2023-05-06T04:19:07.169Z,-1.10
2023-05-06T04:21:35.809Z,-1.00
2023-05-06T04:24:07.116Z,-0.90
2023-05-06T04:26:37.767Z,-0.90
2023-05-06T04:29:05.129Z,-0.80
2023-05-06T04:31:35.071Z,-0.70
2023-05-06T04:34:04.741Z,-0.70
2023-05-06T04:36:32.564Z,-0.60
2023-05-06T04:39:28.374Z,-0.50
2023-05-06T04:41:56.441Z,-0.40
2023-05-06T04:44:30.967Z,-0.30
2023-05-06T04:46:57.974Z,-0.20
2023-05-06T04:49:25.404Z,-0.10
2023-05-06T04:51:52.657Z,0.10
2023-05-06T04:54:19.508Z,0.20
2023-05-06T04:56:46.313Z,0.30
2023-05-06T04:59:15.475Z,0.50
2023-05-06T05:01:44.284Z,0.70
2023-05-06T05:04:11.730Z,0.90
2023-05-06T05:06:39.574Z,1.20
2023-05-06T05:09:06.626Z,1.40
2023-05-06T05:11:36.714Z,1.50
2023-05-06T05:14:03.574Z,1.70
2023-05-06T05:16:31.438Z,1.80
2023-05-06T05:18:59.324Z,2.00
2023-05-06T05:21:28.869Z,2.20
2023-05-06T05:23:56.973Z,2.40
2023-05-06T05:26:23.823Z,2.50
2023-05-06T05:28:52.991Z,2.60
2023-05-06T05:31:19.868Z,2.80
2023-05-06T05:33:47.620Z,2.90
2023-05-06T05:36:17.455Z,3.00
2023-05-06T05:38:47.802Z,3.20
2023-05-06T05:41:17.300Z,3.30
2023-05-06T05:43:45.113Z,3.30
2023-05-06T05:46:11.977Z,3.40
2023-05-06T05:48:39.862Z,3.70
2023-05-06T05:51:07.525Z,3.80
2023-05-06T05:53:34.411Z,4.00
2023-05-06T05:56:01.241Z,4.10
2023-05-06T05:58:28.991Z,4.20
2023-05-06T06:00:58.703Z,4.20
2023-05-06T06:03:25.829Z,4.30
2023-05-06T06:05:55.189Z,4.40
2023-05-06T06:08:23.011Z,4.50
2023-05-06T06:10:52.061Z,4.70
2023-05-06T06:13:24.179Z,4.80
2023-05-06T06:15:52.185Z,5.00
2023-05-06T06:18:19.234Z,5.10
2023-05-06T06:20:46.245Z,5.10
2023-05-06T06:23:14.037Z,5.20
2023-05-06T06:25:40.913Z,5.10
2023-05-06T06:28:07.851Z,5.10
2023-05-06T06:30:34.657Z,5.20
2023-05-06T06:33:01.638Z,5.10
2023-05-06T06:35:29.291Z,5.00
2023-05-06T06:37:56.166Z,5.00
2023-05-06T06:40:23.098Z,5.00
2023-05-06T06:42:50.021Z,5.10
2023-05-06T06:45:39.901Z,5.30
2023-05-06T06:48:06.796Z,5.50
2023-05-06T06:50:33.648Z,5.50
2023-05-06T06:53:00.529Z,5.60
2023-05-06T06:55:27.307Z,5.60
2023-05-06T06:57:54.148Z,5.80
2023-05-06T07:00:21.006Z,5.90
2023-05-06T07:02:48.652Z,5.90
2023-05-06T07:05:15.864Z,5.80
2023-05-06T07:07:42.722Z,5.80
2023-05-06T07:10:09.953Z,5.80
2023-05-06T07:12:37.158Z,5.90
2023-05-06T07:15:07.209Z,5.90
2023-05-06T07:17:34.117Z,6.10
2023-05-06T07:20:01.429Z,6.30
2023-05-06T07:22:29.201Z,6.50
2023-05-06T07:24:56.142Z,6.50
2023-05-06T07:27:24.120Z,6.50
2023-05-06T07:29:51.245Z,6.60
2023-05-06T07:32:18.090Z,6.60
2023-05-06T07:34:44.928Z,6.60
2023-05-06T07:37:11.773Z,6.40
2023-05-06T07:39:38.724Z,6.40
2023-05-06T07:42:05.692Z,6.50
2023-05-06T07:44:32.482Z,6.70
2023-05-06T07:46:59.498Z,6.90
2023-05-06T07:49:28.783Z,7.00
2023-05-06T07:51:55.706Z,7.00
2023-05-06T07:54:22.559Z,7.00
2023-05-06T07:56:49.377Z,7.00
2023-05-06T07:59:16.194Z,7.10
2023-05-06T08:01:42.991Z,7.30
2023-05-06T08:04:09.868Z,7.50
2023-05-06T08:06:36.753Z,7.60
2023-05-06T08:09:03.715Z,7.60
2023-05-06T08:11:30.678Z,7.50
2023-05-06T08:13:57.491Z,7.50
2023-05-06T08:16:25.493Z,7.40
2023-05-06T08:18:52.612Z,7.40
2023-05-06T08:21:19.392Z,7.30
2023-05-06T08:23:46.434Z,7.30
2023-05-06T08:26:13.230Z,7.30
2023-05-06T08:28:40.082Z,7.40
2023-05-06T08:31:06.928Z,7.50
2023-05-06T08:33:33.891Z,7.60
2023-05-06T08:36:00.854Z,7.40
2023-05-06T08:38:27.748Z,7.30
2023-05-06T08:40:54.909Z,7.30
2023-05-06T08:43:24.687Z,7.40
2023-05-06T08:45:51.744Z,7.70
2023-05-06T08:48:18.666Z,7.90
2023-05-06T08:50:45.911Z,8.00
2023-05-06T08:53:13.700Z,8.20
2023-05-06T08:55:44.139Z,8.30
2023-05-06T08:58:13.360Z,8.40
2023-05-06T09:00:40.317Z,8.40
2023-05-06T09:03:07.416Z,8.50
2023-05-06T09:05:34.298Z,8.50
2023-05-06T09:08:01.078Z,8.50
2023-05-06T09:10:33.345Z,8.50
2023-05-06T09:13:00.238Z,8.50
2023-05-06T09:15:27.234Z,8.60
2023-05-06T09:17:55.650Z,8.60
2023-05-06T09:20:22.574Z,8.70
2023-05-06T09:22:49.443Z,8.90
2023-05-06T09:25:16.525Z,8.90
2023-05-06T09:27:43.386Z,8.80
2023-05-06T09:30:12.537Z,8.90
2023-05-06T09:32:40.641Z,9.10
2023-05-06T09:35:09.665Z,9.20
2023-05-06T09:37:36.837Z,9.30
2023-05-06T09:40:03.831Z,9.20
2023-05-06T09:42:31.344Z,9.30
2023-05-06T09:45:02.434Z,9.20
2023-05-06T09:47:34.588Z,9.20
2023-05-06T09:50:03.440Z,9.10
2023-05-06T09:52:31.280Z,9.10
2023-05-06T09:54:58.500Z,9.20
2023-05-06T09:57:26.828Z,9.30
2023-05-06T09:59:55.563Z,9.30
2023-05-06T10:02:23.776Z,9.40
2023-05-06T10:04:52.459Z,9.40
2023-05-06T10:07:23.544Z,9.50
2023-05-06T10:09:53.304Z,9.60
2023-05-06T10:12:20.595Z,9.60
2023-05-06T10:14:47.698Z,9.70
2023-05-06T10:17:14.801Z,9.80
2023-05-06T10:19:46.213Z,9.90
2023-05-06T10:22:36.012Z,10.00
2023-05-06T10:25:28.940Z,10.10
2023-05-06T10:27:55.744Z,10.10
2023-05-06T10:30:23.883Z,10.20
2023-05-06T10:32:56.631Z,10.20
2023-05-06T10:35:41.438Z,10.20
2023-05-06T10:38:13.960Z,10.30
2023-05-06T10:40:41.197Z,10.30
2023-05-06T10:43:34.171Z,10.30
2023-05-06T10:46:16.626Z,10.20
2023-05-06T10:49:08.898Z,10.30
2023-05-06T10:51:38.615Z,10.30
2023-05-06T10:54:09.786Z,10.30
2023-05-06T10:56:37.561Z,10.40
2023-05-06T10:59:08.934Z,10.50
2023-05-06T11:01:40.653Z,10.60
2023-05-06T11:04:09.654Z,10.60
2023-05-06T11:06:44.468Z,10.80
2023-05-06T11:09:26.909Z,10.90
2023-05-06T11:12:01.803Z,10.90
2023-05-06T11:14:36.461Z,10.80
2023-05-06T11:17:07.043Z,10.90
2023-05-06T11:19:38.846Z,10.90
2023-05-06T11:22:07.350Z,11.00
2023-05-06T11:24:41.340Z,11.00
2023-05-06T11:27:10.528Z,10.90
2023-05-06T11:29:37.587Z,10.60
2023-05-06T11:32:06.463Z,10.80
2023-05-06T11:34:35.440Z,10.80
2023-05-06T11:37:04.952Z,10.70
2023-05-06T11:39:39.331Z,10.70
2023-05-06T11:42:08.786Z,10.90
2023-05-06T11:44:39.563Z,10.80
2023-05-06T11:47:08.008Z,10.80
2023-05-06T11:49:40.403Z,10.80
2023-05-06T11:52:11.952Z,11.00
2023-05-06T11:54:41.077Z,11.00
2023-05-06T11:57:08.409Z,11.10
2023-05-06T11:59:40.109Z,11.20
2023-05-06T12:02:09.198Z,11.30
2023-05-06T12:04:43.922Z,11.30
2023-05-06T12:07:16.274Z,11.00
2023-05-06T12:09:48.647Z,10.90
2023-05-06T12:12:18.037Z,10.90
2023-05-06T12:14:45.895Z,11.00
2023-05-06T12:17:13.147Z,11.00
2023-05-06T12:19:40.571Z,11.10
2023-05-06T12:22:20.959Z,11.10
2023-05-06T12:24:48.926Z,11.30
2023-05-06T12:27:29.481Z,11.40
2023-05-06T12:29:56.659Z,11.20
2023-05-06T12:32:23.497Z,11.20
2023-05-06T12:34:50.355Z,11.30
2023-05-06T12:37:30.330Z,11.30
2023-05-06T12:39:59.167Z,11.40
2023-05-06T12:42:26.586Z,11.40
2023-05-06T12:44:53.394Z,11.40
2023-05-06T12:47:22.679Z,11.60
2023-05-06T12:49:51.128Z,11.70
2023-05-06T12:52:20.069Z,11.70
2023-05-06T12:54:47.740Z,11.70
2023-05-06T12:57:14.992Z,11.70
2023-05-06T12:59:44.357Z,11.70
2023-05-06T13:02:11.395Z,11.80
2023-05-06T13:04:38.593Z,11.90
2023-05-06T13:07:06.047Z,11.90
2023-05-06T13:09:33.133Z,11.90
2023-05-06T13:11:59.968Z,11.80
2023-05-06T13:14:26.972Z,11.80
2023-05-06T13:16:53.913Z,11.60
2023-05-06T13:19:31.781Z,11.60
2023-05-06T13:22:00.535Z,11.50
2023-05-06T13:24:27.650Z,11.50
2023-05-06T13:26:56.142Z,11.60
2023-05-06T13:29:23.708Z,11.60
2023-05-06T13:31:51.596Z,12.00
2023-05-06T13:34:18.857Z,12.10
2023-05-06T13:36:46.796Z,12.10
2023-05-06T13:39:13.894Z,11.80
2023-05-06T13:41:40.788Z,11.80
2023-05-06T13:44:07.839Z,11.90
2023-05-06T13:46:34.736Z,11.80
2023-05-06T13:49:01.618Z,11.90
2023-05-06T13:51:30.763Z,12.00
2023-05-06T13:53:57.795Z,12.20
2023-05-06T13:56:24.723Z,12.20
2023-05-06T13:58:53.240Z,12.10
2023-05-06T14:01:21.522Z,12.00
2023-05-06T14:03:48.905Z,12.00
2023-05-06T14:06:15.772Z,12.10
2023-05-06T14:08:42.763Z,12.10
2023-05-06T14:11:12.291Z,12.10
2023-05-06T14:13:39.945Z,12.00
2023-05-06T14:16:07.220Z,12.30
2023-05-06T14:18:34.408Z,12.40
2023-05-06T14:21:01.259Z,12.50
2023-05-06T14:23:28.157Z,12.40
2023-05-06T14:25:54.991Z,12.50
2023-05-06T14:28:21.883Z,12.70
2023-05-06T14:30:51.336Z,12.40
2023-05-06T14:33:18.265Z,12.50
2023-05-06T14:35:46.180Z,12.50
2023-05-06T14:38:13.082Z,12.40
2023-05-06T14:40:39.928Z,12.50
2023-05-06T14:43:09.521Z,12.50
2023-05-06T14:45:36.363Z,12.70
2023-05-06T14:48:03.822Z,13.00
2023-05-06T14:50:31.298Z,13.00
2023-05-06T14:52:58.306Z,13.20
2023-05-06T14:55:25.867Z,13.00
2023-05-06T14:57:52.727Z,12.80
2023-05-06T15:00:20.607Z,13.00
2023-05-06T15:02:47.528Z,12.60
2023-05-06T15:05:15.181Z,12.40
2023-05-06T15:07:42.266Z,12.50
2023-05-06T15:10:09.412Z,12.60
2023-05-06T15:12:37.424Z,12.70
2023-05-06T15:15:05.502Z,12.80
2023-05-06T15:17:32.769Z,12.90
2023-05-06T15:19:59.781Z,13.00
2023-05-06T15:22:26.635Z,13.00
2023-05-06T15:24:53.508Z,13.20
2023-05-06T15:27:20.353Z,13.20
2023-05-06T15:29:47.216Z,13.30
2023-05-06T15:32:14.065Z,13.20
2023-05-06T15:34:40.851Z,13.20
2023-05-06T15:37:08.145Z,13.30
2023-05-06T15:39:39.116Z,13.30
2023-05-06T15:42:06.388Z,13.10
2023-05-06T15:44:34.069Z,13.10
2023-05-06T15:47:00.944Z,13.30
2023-05-06T15:52:00.611Z,13.30
2023-05-06T15:54:28.093Z,13.40
2023-05-06T15:56:55.027Z,13.60
2023-05-06T15:59:22.158Z,13.90
2023-05-06T16:04:19.183Z,13.60
2023-05-06T16:06:46.203Z,13.60
2023-05-06T16:09:13.129Z,13.50
2023-05-06T16:11:39.896Z,13.50
2023-05-06T16:14:06.767Z,13.90
2023-05-06T16:16:33.669Z,13.80
2023-05-06T16:19:00.484Z,13.60
2023-05-06T16:21:27.320Z,13.90
2023-05-06T16:23:54.304Z,14.00
2023-05-06T16:26:21.309Z,14.10
2023-05-06T16:28:48.277Z,14.10
2023-05-06T16:31:15.105Z,14.10
2023-05-06T16:33:41.953Z,14.00
2023-05-06T16:36:09.043Z,14.00
2023-05-06T16:38:35.887Z,13.80
2023-05-06T16:41:02.688Z,14.20
2023-05-06T16:43:29.576Z,14.50
2023-05-06T16:45:56.464Z,14.20
2023-05-06T16:48:23.326Z,14.20
2023-05-06T16:50:50.141Z,14.10
2023-05-06T16:53:17.496Z,14.10
2023-05-06T16:55:48.801Z,14.20
2023-05-06T16:58:16.060Z,14.10
2023-05-06T17:00:43.066Z,14.10
2023-05-06T17:03:10.308Z,14.40
2023-05-06T17:05:37.416Z,14.40
2023-05-06T17:08:04.512Z,14.10
2023-05-06T17:10:31.377Z,13.90
2023-05-06T17:12:58.901Z,14.00
2023-05-06T17:15:25.952Z,13.90
2023-05-06T17:17:53.126Z,13.80
2023-05-06T17:20:20.384Z,13.60
2023-05-06T17:22:47.832Z,13.70
2023-05-06T17:25:15.382Z,13.60
2023-05-06T17:27:42.312Z,13.40
2023-05-06T17:30:12.773Z,13.40
2023-05-06T17:32:40.170Z,13.00
2023-05-06T17:35:07.581Z,12.50
2023-05-06T17:37:34.845Z,12.20
2023-05-06T17:40:02.319Z,11.90
2023-05-06T17:42:30.320Z,11.50
2023-05-06T17:44:57.202Z,11.10
2023-05-06T17:47:24.180Z,10.70
2023-05-06T17:49:52.951Z,10.20
2023-05-06T17:52:20.509Z,9.90
2023-05-06T17:54:57.008Z,9.60
2023-05-06T17:57:34.546Z,9.30
2023-05-06T18:00:01.351Z,9.30
2023-05-06T18:02:28.314Z,9.00
2023-05-06T18:04:55.250Z,8.90
2023-05-06T18:07:22.167Z,8.70
2023-05-06T18:09:52.206Z,8.70
2023-05-06T18:12:19.649Z,8.50
2023-05-06T18:14:47.020Z,8.30
2023-05-06T18:17:14.067Z,8.10
2023-05-06T18:19:41.015Z,8.00
2023-05-06T18:22:07.822Z,7.80
2023-05-06T18:24:34.716Z,7.70
2023-05-06T18:27:02.330Z,7.50
2023-05-06T18:29:30.348Z,7.20
2023-05-06T18:31:57.544Z,7.00
2023-05-06T18:34:24.453Z,6.70
2023-05-06T18:36:51.412Z,6.60
2023-05-06T18:39:18.279Z,6.60
2023-05-06T18:41:45.284Z,6.40
2023-05-06T18:44:12.113Z,6.30
2023-05-06T18:46:39.679Z,6.10
2023-05-06T18:49:08.013Z,6.00
2023-05-06T18:51:34.860Z,5.90
2023-05-06T18:54:01.690Z,5.70
2023-05-06T18:56:28.611Z,5.60
2023-05-06T18:58:55.439Z,5.50
2023-05-06T19:01:22.816Z,5.40
2023-05-06T19:03:49.797Z,5.30
2023-05-06T19:06:16.717Z,5.20
2023-05-06T19:08:43.656Z,5.10
2023-05-06T19:11:18.337Z,5.00
2023-05-06T19:13:46.315Z,4.80
2023-05-06T19:16:14.002Z,4.70
2023-05-06T19:18:41.097Z,4.60
2023-05-06T19:21:15.088Z,4.50
2023-05-06T19:23:42.015Z,4.50
2023-05-06T19:26:12.003Z,4.40
2023-05-06T19:28:40.495Z,4.30
2023-05-06T19:31:11.292Z,4.30
2023-05-06T19:33:38.957Z,4.20
2023-05-06T19:36:06.414Z,4.20
2023-05-06T19:38:33.705Z,4.10
2023-05-06T19:41:01.035Z,4.00
2023-05-06T19:43:27.899Z,4.00
2023-05-06T19:45:54.750Z,3.90
2023-05-06T19:48:23.588Z,3.90
2023-05-06T19:50:51.545Z,3.80
2023-05-06T19:53:18.424Z,3.80
2023-05-06T19:55:45.429Z,3.70
2023-05-06T19:58:14.284Z,3.70
2023-05-06T20:00:41.139Z,3.60
2023-05-06T20:03:09.009Z,3.60
2023-05-06T20:05:35.998Z,3.50
2023-05-06T20:08:02.926Z,3.50
2023-05-06T20:10:30.259Z,3.40
2023-05-06T20:12:57.966Z,3.40
2023-05-06T20:15:26.544Z,3.40
2023-05-06T20:17:53.535Z,3.40
2023-05-06T20:20:20.490Z,3.40
2023-05-06T20:22:47.477Z,3.30
2023-05-06T20:25:16.259Z,3.30
2023-05-06T20:27:46.462Z,3.20
2023-05-06T20:30:13.514Z,3.20
2023-05-06T20:32:40.956Z,3.20
2023-05-06T20:35:08.690Z,3.10
2023-05-06T20:37:36.230Z,3.10
2023-05-06T20:40:04.940Z,3.10
2023-05-06T20:42:32.114Z,3.10
2023-05-06T20:44:59.232Z,3.00
2023-05-06T20:47:26.656Z,3.00
2023-05-06T20:49:53.852Z,3.00
2023-05-06T20:52:21.740Z,3.00
2023-05-06T20:54:48.703Z,3.00
2023-05-06T20:57:16.637Z,2.90
2023-05-06T20:59:43.646Z,2.90
2023-05-06T21:02:10.886Z,2.90
2023-05-06T21:04:37.869Z,2.90
2023-05-06T21:07:04.759Z,2.90
2023-05-06T21:09:31.597Z,2.90
2023-05-06T21:11:59.063Z,2.80
2023-05-06T21:14:26.950Z,2.80
2023-05-06T21:16:54.092Z,2.70
2023-05-06T21:19:21.030Z,2.70
2023-05-06T21:21:48.373Z,2.70
2023-05-06T21:24:15.395Z,2.70
2023-05-06T21:26:42.242Z,2.70
2023-05-06T21:29:09.096Z,2.60
2023-05-06T21:31:36.316Z,2.60
2023-05-06T21:34:04.249Z,2.60
2023-05-06T21:36:31.292Z,2.60
2023-05-06T21:39:16.339Z,2.60
2023-05-06T21:41:43.301Z,2.60
2023-05-06T21:44:10.380Z,2.60
2023-05-06T21:46:37.904Z,2.60
2023-05-06T21:49:05.213Z,2.60
2023-05-06T21:51:34.502Z,2.60
2023-05-06T21:54:01.824Z,2.60
2023-05-06T21:56:29.085Z,2.60
2023-05-06T21:58:56.261Z,2.60
2023-05-06T22:01:26.175Z,2.60
2023-05-06T22:03:54.218Z,2.60
2023-05-06T22:06:21.353Z,2.60
2023-05-06T22:08:48.189Z,2.60
2023-05-06T22:11:15.192Z,2.60
2023-05-06T22:13:41.966Z,2.60
2023-05-06T22:16:09.846Z,2.60
2023-05-06T22:18:41.203Z,2.60
2023-05-06T22:21:08.767Z,2.60
2023-05-06T22:23:35.750Z,2.50
2023-05-06T22:26:02.844Z,2.60
2023-05-06T22:28:29.720Z,2.50
2023-05-06T22:30:56.600Z,2.50
2023-05-06T22:33:23.421Z,2.60
2023-05-06T22:35:50.274Z,2.50
2023-05-06T22:38:17.148Z,2.50
2023-05-06T22:40:44.009Z,2.60
2023-05-06T22:43:10.834Z,2.60
2023-05-06T22:45:37.797Z,2.50
2023-05-06T22:48:05.400Z,2.50
2023-05-06T22:50:32.451Z,2.60
2023-05-06T22:53:02.923Z,2.60
2023-05-06T22:55:35.653Z,2.60
2023-05-06T22:58:03.524Z,2.60
2023-05-06T23:00:30.329Z,2.50
2023-05-06T23:02:57.376Z,2.60
2023-05-06T23:05:24.252Z,2.60
2023-05-06T23:07:51.208Z,2.60
2023-05-06T23:10:18.720Z,2.60
2023-05-06T23:12:45.673Z,2.60
2023-05-06T23:15:12.649Z,2.60
2023-05-06T23:17:39.548Z,2.60
2023-05-06T23:20:08.079Z,2.60
2023-05-06T23:22:34.981Z,2.60
2023-05-06T23:25:01.734Z,2.60
2023-05-06T23:27:28.523Z,2.60
2023-05-06T23:29:55.369Z,2.60
2023-05-06T23:32:22.169Z,2.60
2023-05-06T23:34:49.582Z,2.60
2023-05-06T23:37:17.582Z,2.60
2023-05-06T23:39:44.576Z,2.60
2023-05-06T23:42:11.354Z,2.60
2023-05-06T23:44:38.126Z,2.60
2023-05-06T23:47:04.982Z,2.60
2023-05-06T23:49:32.112Z,2.50
2023-05-06T23:51:59.306Z,2.50
2023-05-06T23:54:26.096Z,2.50
2023-05-06T23:56:53.049Z,2.50
2023-05-06T23:59:19.950Z,2.50
